sensor_id;sensor_type;location;lat;lon;timestamp;temperature;humidity
2012;DHT22;1009;51.436;6.972;2023-09-30T00:02:20;14.50;99.90
2012;DHT22;1009;51.436;6.972;2023-09-30T00:04:47;14.50;99.90
2012;DHT22;1009;51.436;6.972;2023-09-30T00:07:13;14.40;99.90
2012;DHT22;1009;51.436;6.972;2023-09-30T00:09:41;14.50;99.90
2012;DHT22;1009;51.436;6.972;2023-09-30T00:12:08;14.40;99.90
2012;DHT22;1009;51.436;6.972;2023-09-30T00:14:35;14.50;99.90
2012;DHT22;1009;51.436;6.972;2023-09-30T00:17:03;14.40;99.90
2012;DHT22;1009;51.436;6.972;2023-09-30T00:19:30;14.40;99.90
2012;DHT22;1009;51.436;6.972;2023-09-30T00:21:58;14.40;99.90
2012;DHT22;1009;51.436;6.972;2023-09-30T00:24:25;14.40;99.90
2012;DHT22;1009;51.436;6.972;2023-09-30T00:26:53;14.40;99.90
2012;DHT22;1009;51.436;6.972;2023-09-30T00:29:20;14.40;99.90
2012;DHT22;1009;51.436;6.972;2023-09-30T00:31:47;14.40;99.90
2012;DHT22;1009;51.436;6.972;2023-09-30T00:34:14;14.40;99.90
2012;DHT22;1009;51.436;6.972;2023-09-30T00:36:41;14.40;99.90
2012;DHT22;1009;51.436;6.972;2023-09-30T00:39:08;14.40;99.90
2012;DHT22;1009;51.436;6.972;2023-09-30T00:41:35;14.40;99.90
2012;DHT22;1009;51.436;6.972;2023-09-30T00:44:03;14.40;99.90
2012;DHT22;1009;51.436;6.972;2023-09-30T00:46:31;14.40;99.90
2012;DHT22;1009;51.436;6.972;2023-09-30T00:48:59;14.40;99.90
2012;DHT22;1009;51.436;6.972;2023-09-30T00:51:26;14.40;99.90
2012;DHT22;1009;51.436;6.972;2023-09-30T00:53:56;14.40;99.90
2012;DHT22;1009;51.436;6.972;2023-09-30T00:56:25;14.40;99.90
2012;DHT22;1009;51.436;6.972;2023-09-30T00:58:53;14.50;99.90
2012;DHT22;1009;51.436;6.972;2023-09-30T01:01:21;14.50;99.90
2012;DHT22;1009;51.436;6.972;2023-09-30T01:03:49;14.40;99.90
2012;DHT22;1009;51.436;6.972;2023-09-30T01:06:15;14.40;99.90
2012;DHT22;1009;51.436;6.972;2023-09-30T01:08:42;14.40;99.90
2012;DHT22;1009;51.436;6.972;2023-09-30T01:11:09;14.40;99.90
2012;DHT22;1009;51.436;6.972;2023-09-30T01:13:37;14.40;99.90
2012;DHT22;1009;51.436;6.972;2023-09-30T01:16:04;14.50;99.90
2012;DHT22;1009;51.436;6.972;2023-09-30T01:18:33;14.40;99.90
2012;DHT22;1009;51.436;6.972;2023-09-30T01:21:02;14.50;99.90
2012;DHT22;1009;51.436;6.972;2023-09-30T01:23:31;14.50;99.90
2012;DHT22;1009;51.436;6.972;2023-09-30T01:26:01;14.50;99.90
2012;DHT22;1009;51.436;6.972;2023-09-30T01:28:28;14.60;99.90
2012;DHT22;1009;51.436;6.972;2023-09-30T01:30:56;14.60;99.90
2012;DHT22;1009;51.436;6.972;2023-09-30T01:33:22;14.50;99.90
2012;DHT22;1009;51.436;6.972;2023-09-30T01:35:49;14.40;99.90
2012;DHT22;1009;51.436;6.972;2023-09-30T01:38:16;14.40;99.90
2012;DHT22;1009;51.436;6.972;2023-09-30T01:40:45;14.40;99.90
2012;DHT22;1009;51.436;6.972;2023-09-30T01:43:12;14.50;99.90
2012;DHT22;1009;51.436;6.972;2023-09-30T01:45:39;14.50;99.90
2012;DHT22;1009;51.436;6.972;2023-09-30T01:48:06;14.40;99.90
2012;DHT22;1009;51.436;6.972;2023-09-30T01:50:36;14.40;99.90
2012;DHT22;1009;51.436;6.972;2023-09-30T01:53:03;14.40;99.90
2012;DHT22;1009;51.436;6.972;2023-09-30T01:55:31;14.40;99.90
2012;DHT22;1009;51.436;6.972;2023-09-30T01:58:00;14.40;99.90
2012;DHT22;1009;51.436;6.972;2023-09-30T02:00:27;14.40;99.90
2012;DHT22;1009;51.436;6.972;2023-09-30T02:02:54;14.40;99.90
2012;DHT22;1009;51.436;6.972;2023-09-30T02:05:21;14.40;99.90
2012;DHT22;1009;51.436;6.972;2023-09-30T02:07:49;14.30;99.90
2012;DHT22;1009;51.436;6.972;2023-09-30T02:10:16;14.30;99.90
2012;DHT22;1009;51.436;6.972;2023-09-30T02:12:44;14.30;99.90
2012;DHT22;1009;51.436;6.972;2023-09-30T02:15:12;14.30;99.90
2012;DHT22;1009;51.436;6.972;2023-09-30T02:17:40;14.30;99.90
2012;DHT22;1009;51.436;6.972;2023-09-30T02:20:11;14.30;99.90
2012;DHT22;1009;51.436;6.972;2023-09-30T02:22:45;14.30;99.90
2012;DHT22;1009;51.436;6.972;2023-09-30T02:25:13;14.30;99.90
2012;DHT22;1009;51.436;6.972;2023-09-30T02:27:40;14.30;99.90
2012;DHT22;1009;51.436;6.972;2023-09-30T02:30:08;14.20;99.90
2012;DHT22;1009;51.436;6.972;2023-09-30T02:32:38;14.20;99.90
2012;DHT22;1009;51.436;6.972;2023-09-30T02:35:06;14.20;99.90
2012;DHT22;1009;51.436;6.972;2023-09-30T02:37:33;14.30;99.90
2012;DHT22;1009;51.436;6.972;2023-09-30T02:40:03;14.30;99.90
2012;DHT22;1009;51.436;6.972;2023-09-30T02:42:35;14.30;99.90
2012;DHT22;1009;51.436;6.972;2023-09-30T02:45:03;14.30;99.90
2012;DHT22;1009;51.436;6.972;2023-09-30T02:47:29;14.20;99.90
2012;DHT22;1009;51.436;6.972;2023-09-30T02:49:58;14.20;99.90
2012;DHT22;1009;51.436;6.972;2023-09-30T02:52:25;14.20;99.90
2012;DHT22;1009;51.436;6.972;2023-09-30T02:54:54;14.20;99.90
2012;DHT22;1009;51.436;6.972;2023-09-30T02:57:22;14.20;99.90
2012;DHT22;1009;51.436;6.972;2023-09-30T02:59:51;14.10;99.90
2012;DHT22;1009;51.436;6.972;2023-09-30T03:02:19;14.10;99.90
2012;DHT22;1009;51.436;6.972;2023-09-30T03:04:46;14.10;99.90
2012;DHT22;1009;51.436;6.972;2023-09-30T03:07:18;14.00;99.90
2012;DHT22;1009;51.436;6.972;2023-09-30T03:09:45;14.00;99.90
2012;DHT22;1009;51.436;6.972;2023-09-30T03:12:12;14.00;99.90
2012;DHT22;1009;51.436;6.972;2023-09-30T03:14:39;13.90;99.90
2012;DHT22;1009;51.436;6.972;2023-09-30T03:17:06;13.90;99.90
2012;DHT22;1009;51.436;6.972;2023-09-30T03:19:36;13.90;99.90
2012;DHT22;1009;51.436;6.972;2023-09-30T03:22:04;13.90;99.90
2012;DHT22;1009;51.436;6.972;2023-09-30T03:24:38;13.90;99.90
2012;DHT22;1009;51.436;6.972;2023-09-30T03:27:04;13.90;99.90
2012;DHT22;1009;51.436;6.972;2023-09-30T03:29:31;13.90;99.90
2012;DHT22;1009;51.436;6.972;2023-09-30T03:31:58;13.90;99.90
2012;DHT22;1009;51.436;6.972;2023-09-30T03:34:25;13.90;99.90
2012;DHT22;1009;51.436;6.972;2023-09-30T03:36:51;13.90;99.90
2012;DHT22;1009;51.436;6.972;2023-09-30T03:39:24;13.90;99.90
2012;DHT22;1009;51.436;6.972;2023-09-30T03:41:54;13.90;99.90
2012;DHT22;1009;51.436;6.972;2023-09-30T03:44:21;13.90;99.90
2012;DHT22;1009;51.436;6.972;2023-09-30T03:46:48;13.90;99.90
2012;DHT22;1009;51.436;6.972;2023-09-30T03:49:15;14.00;99.90
2012;DHT22;1009;51.436;6.972;2023-09-30T03:51:42;13.90;99.90
2012;DHT22;1009;51.436;6.972;2023-09-30T03:54:09;13.90;99.90
2012;DHT22;1009;51.436;6.972;2023-09-30T03:56:36;13.90;99.90
2012;DHT22;1009;51.436;6.972;2023-09-30T03:59:05;13.90;99.90
2012;DHT22;1009;51.436;6.972;2023-09-30T04:01:32;13.90;99.90
2012;DHT22;1009;51.436;6.972;2023-09-30T04:03:59;13.90;99.90
2012;DHT22;1009;51.436;6.972;2023-09-30T04:06:25;13.90;99.90
2012;DHT22;1009;51.436;6.972;2023-09-30T04:08:54;13.90;99.90
2012;DHT22;1009;51.436;6.972;2023-09-30T04:11:21;13.90;99.90
2012;DHT22;1009;51.436;6.972;2023-09-30T04:13:49;13.90;99.90
2012;DHT22;1009;51.436;6.972;2023-09-30T04:16:17;13.90;99.90
2012;DHT22;1009;51.436;6.972;2023-09-30T04:18:45;14.00;99.90
2012;DHT22;1009;51.436;6.972;2023-09-30T04:21:11;14.00;99.90
2012;DHT22;1009;51.436;6.972;2023-09-30T04:23:38;14.00;99.90
2012;DHT22;1009;51.436;6.972;2023-09-30T04:26:05;14.00;99.90
2012;DHT22;1009;51.436;6.972;2023-09-30T04:28:35;13.90;99.90
2012;DHT22;1009;51.436;6.972;2023-09-30T04:31:02;13.90;99.90
2012;DHT22;1009;51.436;6.972;2023-09-30T04:33:31;13.80;99.90
2012;DHT22;1009;51.436;6.972;2023-09-30T04:36:01;13.80;99.90
2012;DHT22;1009;51.436;6.972;2023-09-30T04:38:28;13.80;99.90
2012;DHT22;1009;51.436;6.972;2023-09-30T04:40:56;13.70;99.90
2012;DHT22;1009;51.436;6.972;2023-09-30T04:43:23;13.70;99.90
2012;DHT22;1009;51.436;6.972;2023-09-30T04:45:50;13.70;99.90
2012;DHT22;1009;51.436;6.972;2023-09-30T04:48:18;13.80;99.90
2012;DHT22;1009;51.436;6.972;2023-09-30T04:50:46;13.70;99.90
2012;DHT22;1009;51.436;6.972;2023-09-30T04:53:13;13.70;99.90
2012;DHT22;1009;51.436;6.972;2023-09-30T04:55:41;13.70;99.90
2012;DHT22;1009;51.436;6.972;2023-09-30T04:58:08;13.80;99.90
2012;DHT22;1009;51.436;6.972;2023-09-30T05:00:35;13.80;99.90
2012;DHT22;1009;51.436;6.972;2023-09-30T05:03:01;13.80;99.90
2012;DHT22;1009;51.436;6.972;2023-09-30T05:05:30;13.80;99.90
2012;DHT22;1009;51.436;6.972;2023-09-30T05:07:58;13.80;99.90
2012;DHT22;1009;51.436;6.972;2023-09-30T05:10:25;13.80;99.90
2012;DHT22;1009;51.436;6.972;2023-09-30T05:12:52;13.80;99.90
2012;DHT22;1009;51.436;6.972;2023-09-30T05:15:20;13.70;99.90
2012;DHT22;1009;51.436;6.972;2023-09-30T05:17:48;13.70;99.90
2012;DHT22;1009;51.436;6.972;2023-09-30T05:20:16;13.70;99.90
2012;DHT22;1009;51.436;6.972;2023-09-30T05:22:44;13.70;99.90
2012;DHT22;1009;51.436;6.972;2023-09-30T05:25:13;13.60;99.90
2012;DHT22;1009;51.436;6.972;2023-09-30T05:27:41;13.60;99.90
2012;DHT22;1009;51.436;6.972;2023-09-30T05:30:09;13.60;99.90
2012;DHT22;1009;51.436;6.972;2023-09-30T05:32:36;13.50;99.90
2012;DHT22;1009;51.436;6.972;2023-09-30T05:35:04;13.50;99.90
2012;DHT22;1009;51.436;6.972;2023-09-30T05:37:31;13.50;99.90
2012;DHT22;1009;51.436;6.972;2023-09-30T05:39:58;13.50;99.90
2012;DHT22;1009;51.436;6.972;2023-09-30T05:42:26;13.60;99.90
2012;DHT22;1009;51.436;6.972;2023-09-30T05:44:53;13.60;99.90
2012;DHT22;1009;51.436;6.972;2023-09-30T05:47:20;13.50;99.90
2012;DHT22;1009;51.436;6.972;2023-09-30T05:49:47;13.50;99.90
2012;DHT22;1009;51.436;6.972;2023-09-30T05:52:13;13.50;99.90
2012;DHT22;1009;51.436;6.972;2023-09-30T05:54:40;13.50;99.90
2012;DHT22;1009;51.436;6.972;2023-09-30T05:57:07;13.50;99.90
2012;DHT22;1009;51.436;6.972;2023-09-30T05:59:35;13.50;99.90
2012;DHT22;1009;51.436;6.972;2023-09-30T06:02:03;13.50;99.90
2012;DHT22;1009;51.436;6.972;2023-09-30T06:04:30;13.60;99.90
2012;DHT22;1009;51.436;6.972;2023-09-30T06:06:58;13.60;99.90
2012;DHT22;1009;51.436;6.972;2023-09-30T06:09:25;13.70;99.90
2012;DHT22;1009;51.436;6.972;2023-09-30T06:11:52;13.70;99.90
2012;DHT22;1009;51.436;6.972;2023-09-30T06:14:19;13.70;99.90
2012;DHT22;1009;51.436;6.972;2023-09-30T06:16:47;13.80;99.90
2012;DHT22;1009;51.436;6.972;2023-09-30T06:19:15;13.80;99.90
2012;DHT22;1009;51.436;6.972;2023-09-30T06:21:43;13.70;99.90
2012;DHT22;1009;51.436;6.972;2023-09-30T06:24:09;13.70;99.90
2012;DHT22;1009;51.436;6.972;2023-09-30T06:26:36;13.70;99.90
2012;DHT22;1009;51.436;6.972;2023-09-30T06:29:03;13.70;99.90
2012;DHT22;1009;51.436;6.972;2023-09-30T06:31:31;13.70;99.90
2012;DHT22;1009;51.436;6.972;2023-09-30T06:34:00;13.70;99.90
2012;DHT22;1009;51.436;6.972;2023-09-30T06:36:27;13.80;99.90
2012;DHT22;1009;51.436;6.972;2023-09-30T06:38:54;13.70;99.90
2012;DHT22;1009;51.436;6.972;2023-09-30T06:41:21;13.80;99.90
2012;DHT22;1009;51.436;6.972;2023-09-30T06:43:48;13.90;99.90
2012;DHT22;1009;51.436;6.972;2023-09-30T06:46:17;14.00;99.90
2012;DHT22;1009;51.436;6.972;2023-09-30T06:48:44;14.10;99.90
2012;DHT22;1009;51.436;6.972;2023-09-30T06:51:14;14.20;99.90
2012;DHT22;1009;51.436;6.972;2023-09-30T06:53:41;14.30;99.90
2012;DHT22;1009;51.436;6.972;2023-09-30T06:56:08;14.30;99.90
2012;DHT22;1009;51.436;6.972;2023-09-30T06:58:35;14.40;99.90
2012;DHT22;1009;51.436;6.972;2023-09-30T07:01:01;14.50;99.90
2012;DHT22;1009;51.436;6.972;2023-09-30T07:03:28;14.60;99.90
2012;DHT22;1009;51.436;6.972;2023-09-30T07:05:56;14.60;99.90
2012;DHT22;1009;51.436;6.972;2023-09-30T07:08:27;14.60;99.90
2012;DHT22;1009;51.436;6.972;2023-09-30T07:10:55;14.70;99.90
2012;DHT22;1009;51.436;6.972;2023-09-30T07:13:22;14.70;99.90
2012;DHT22;1009;51.436;6.972;2023-09-30T07:15:49;14.80;99.90
2012;DHT22;1009;51.436;6.972;2023-09-30T07:18:16;14.80;99.90
2012;DHT22;1009;51.436;6.972;2023-09-30T07:20:43;14.90;99.90
2012;DHT22;1009;51.436;6.972;2023-09-30T07:23:09;15.00;99.90
2012;DHT22;1009;51.436;6.972;2023-09-30T07:25:40;15.10;99.90
2012;DHT22;1009;51.436;6.972;2023-09-30T07:28:06;15.30;99.90
2012;DHT22;1009;51.436;6.972;2023-09-30T07:30:37;15.30;99.90
2012;DHT22;1009;51.436;6.972;2023-09-30T07:33:04;15.40;99.90
2012;DHT22;1009;51.436;6.972;2023-09-30T07:35:34;15.50;99.90
2012;DHT22;1009;51.436;6.972;2023-09-30T07:38:01;15.50;99.90
2012;DHT22;1009;51.436;6.972;2023-09-30T07:40:28;15.60;99.90
2012;DHT22;1009;51.436;6.972;2023-09-30T07:42:56;15.70;99.90
2012;DHT22;1009;51.436;6.972;2023-09-30T07:45:23;15.80;99.90
2012;DHT22;1009;51.436;6.972;2023-09-30T07:47:49;16.00;99.90
2012;DHT22;1009;51.436;6.972;2023-09-30T07:50:16;16.10;99.90
2012;DHT22;1009;51.436;6.972;2023-09-30T07:52:43;16.10;99.90
2012;DHT22;1009;51.436;6.972;2023-09-30T07:55:11;16.20;99.90
2012;DHT22;1009;51.436;6.972;2023-09-30T07:57:39;16.20;99.90
2012;DHT22;1009;51.436;6.972;2023-09-30T08:00:09;16.30;99.90
2012;DHT22;1009;51.436;6.972;2023-09-30T08:02:40;16.30;99.90
2012;DHT22;1009;51.436;6.972;2023-09-30T08:05:08;16.20;99.90
2012;DHT22;1009;51.436;6.972;2023-09-30T08:07:35;16.30;99.90
2012;DHT22;1009;51.436;6.972;2023-09-30T08:10:04;16.30;99.90
2012;DHT22;1009;51.436;6.972;2023-09-30T08:12:34;16.30;99.90
2012;DHT22;1009;51.436;6.972;2023-09-30T08:15:01;16.30;99.90
2012;DHT22;1009;51.436;6.972;2023-09-30T08:17:30;16.40;99.90
2012;DHT22;1009;51.436;6.972;2023-09-30T08:19:57;16.40;99.90
2012;DHT22;1009;51.436;6.972;2023-09-30T08:22:23;16.50;99.90
2012;DHT22;1009;51.436;6.972;2023-09-30T08:24:53;16.50;99.90
2012;DHT22;1009;51.436;6.972;2023-09-30T08:27:20;16.50;99.90
2012;DHT22;1009;51.436;6.972;2023-09-30T08:29:47;16.70;99.90
2012;DHT22;1009;51.436;6.972;2023-09-30T08:32:13;16.80;99.90
2012;DHT22;1009;51.436;6.972;2023-09-30T08:34:41;16.90;99.90
2012;DHT22;1009;51.436;6.972;2023-09-30T08:37:08;17.00;99.90
2012;DHT22;1009;51.436;6.972;2023-09-30T08:39:38;17.00;99.90
2012;DHT22;1009;51.436;6.972;2023-09-30T08:42:09;17.10;99.90
2012;DHT22;1009;51.436;6.972;2023-09-30T08:44:37;17.30;99.90
2012;DHT22;1009;51.436;6.972;2023-09-30T08:47:05;17.40;99.90
2012;DHT22;1009;51.436;6.972;2023-09-30T08:49:34;17.40;99.90
2012;DHT22;1009;51.436;6.972;2023-09-30T08:52:04;17.40;99.90
2012;DHT22;1009;51.436;6.972;2023-09-30T08:54:31;17.30;99.90
2012;DHT22;1009;51.436;6.972;2023-09-30T08:56:58;17.20;99.90
2012;DHT22;1009;51.436;6.972;2023-09-30T08:59:26;17.30;99.90
2012;DHT22;1009;51.436;6.972;2023-09-30T09:01:54;17.40;99.90
2012;DHT22;1009;51.436;6.972;2023-09-30T09:04:21;17.40;99.90
2012;DHT22;1009;51.436;6.972;2023-09-30T09:06:46;17.60;99.90
2012;DHT22;1009;51.436;6.972;2023-09-30T09:09:15;17.70;99.90
2012;DHT22;1009;51.436;6.972;2023-09-30T09:11:43;17.80;99.90
2012;DHT22;1009;51.436;6.972;2023-09-30T09:14:10;17.90;99.90
2012;DHT22;1009;51.436;6.972;2023-09-30T09:16:36;18.10;99.90
2012;DHT22;1009;51.436;6.972;2023-09-30T09:19:13;18.20;99.90
2012;DHT22;1009;51.436;6.972;2023-09-30T09:21:53;18.30;99.90
2012;DHT22;1009;51.436;6.972;2023-09-30T09:24:30;18.30;99.90
2012;DHT22;1009;51.436;6.972;2023-09-30T09:27:07;18.30;99.90
2012;DHT22;1009;51.436;6.972;2023-09-30T09:29:35;18.30;99.90
2012;DHT22;1009;51.436;6.972;2023-09-30T09:32:09;18.40;99.90
2012;DHT22;1009;51.436;6.972;2023-09-30T09:34:37;18.30;99.90
2012;DHT22;1009;51.436;6.972;2023-09-30T09:37:17;18.20;99.90
2012;DHT22;1009;51.436;6.972;2023-09-30T09:39:52;18.20;99.90
2012;DHT22;1009;51.436;6.972;2023-09-30T09:42:27;18.40;99.90
2012;DHT22;1009;51.436;6.972;2023-09-30T09:44:55;18.70;99.90
2012;DHT22;1009;51.436;6.972;2023-09-30T09:47:23;19.00;99.90
2012;DHT22;1009;51.436;6.972;2023-09-30T09:49:51;18.80;99.90
2012;DHT22;1009;51.436;6.972;2023-09-30T09:52:19;19.00;99.90
2012;DHT22;1009;51.436;6.972;2023-09-30T09:54:46;19.20;99.90
2012;DHT22;1009;51.436;6.972;2023-09-30T09:57:16;19.30;99.90
2012;DHT22;1009;51.436;6.972;2023-09-30T09:59:44;19.50;99.90
2012;DHT22;1009;51.436;6.972;2023-09-30T10:02:14;19.50;99.90
2012;DHT22;1009;51.436;6.972;2023-09-30T10:04:41;19.60;99.90
2012;DHT22;1009;51.436;6.972;2023-09-30T10:07:11;19.50;99.90
2012;DHT22;1009;51.436;6.972;2023-09-30T10:09:44;19.50;99.90
2012;DHT22;1009;51.436;6.972;2023-09-30T10:12:15;19.40;99.90
2012;DHT22;1009;51.436;6.972;2023-09-30T10:14:42;19.30;99.90
2012;DHT22;1009;51.436;6.972;2023-09-30T10:17:09;19.20;99.90
2012;DHT22;1009;51.436;6.972;2023-09-30T10:19:36;19.30;99.90
2012;DHT22;1009;51.436;6.972;2023-09-30T10:22:23;19.50;99.90
2012;DHT22;1009;51.436;6.972;2023-09-30T10:24:52;19.70;99.90
2012;DHT22;1009;51.436;6.972;2023-09-30T10:27:34;20.00;99.90
2012;DHT22;1009;51.436;6.972;2023-09-30T10:30:09;19.90;99.90
2012;DHT22;1009;51.436;6.972;2023-09-30T10:33:10;19.70;99.90
2012;DHT22;1009;51.436;6.972;2023-09-30T10:35:47;19.80;99.90
2012;DHT22;1009;51.436;6.972;2023-09-30T10:38:36;19.80;99.90
2012;DHT22;1009;51.436;6.972;2023-09-30T10:41:03;19.60;99.90
2012;DHT22;1009;51.436;6.972;2023-09-30T10:43:33;19.50;99.90
2012;DHT22;1009;51.436;6.972;2023-09-30T10:46:01;19.40;99.90
2012;DHT22;1009;51.436;6.972;2023-09-30T10:48:35;19.60;99.90
2012;DHT22;1009;51.436;6.972;2023-09-30T10:51:11;19.50;99.90
2012;DHT22;1009;51.436;6.972;2023-09-30T10:53:43;19.50;99.90
2012;DHT22;1009;51.436;6.972;2023-09-30T10:56:10;19.70;99.90
2012;DHT22;1009;51.436;6.972;2023-09-30T10:58:46;20.00;99.90
2012;DHT22;1009;51.436;6.972;2023-09-30T11:01:14;20.10;99.90
2012;DHT22;1009;51.436;6.972;2023-09-30T11:03:42;20.10;99.90
2012;DHT22;1009;51.436;6.972;2023-09-30T11:06:12;20.40;99.90
2012;DHT22;1009;51.436;6.972;2023-09-30T11:08:46;20.50;99.90
2012;DHT22;1009;51.436;6.972;2023-09-30T11:11:13;20.70;99.90
2012;DHT22;1009;51.436;6.972;2023-09-30T11:13:40;20.60;99.90
2012;DHT22;1009;51.436;6.972;2023-09-30T11:16:08;20.70;99.90
2012;DHT22;1009;51.436;6.972;2023-09-30T11:18:35;20.90;99.90
2012;DHT22;1009;51.436;6.972;2023-09-30T11:21:05;21.10;99.90
2012;DHT22;1009;51.436;6.972;2023-09-30T11:23:32;21.10;99.90
2012;DHT22;1009;51.436;6.972;2023-09-30T11:25:59;21.20;99.90
2012;DHT22;1009;51.436;6.972;2023-09-30T11:28:35;21.10;99.90
2012;DHT22;1009;51.436;6.972;2023-09-30T11:31:02;21.20;99.90
2012;DHT22;1009;51.436;6.972;2023-09-30T11:33:33;21.20;99.90
2012;DHT22;1009;51.436;6.972;2023-09-30T11:36:13;21.00;99.90
2012;DHT22;1009;51.436;6.972;2023-09-30T11:38:44;21.00;99.90
2012;DHT22;1009;51.436;6.972;2023-09-30T11:41:11;21.00;99.90
2012;DHT22;1009;51.436;6.972;2023-09-30T11:43:38;21.10;99.90
2012;DHT22;1009;51.436;6.972;2023-09-30T11:46:06;20.70;99.90
2012;DHT22;1009;51.436;6.972;2023-09-30T11:48:35;20.20;99.90
2012;DHT22;1009;51.436;6.972;2023-09-30T11:51:02;20.00;99.90
2012;DHT22;1009;51.436;6.972;2023-09-30T11:53:29;19.80;99.90
2012;DHT22;1009;51.436;6.972;2023-09-30T11:55:57;19.70;99.90
2012;DHT22;1009;51.436;6.972;2023-09-30T11:58:25;19.80;99.90
2012;DHT22;1009;51.436;6.972;2023-09-30T12:00:54;20.00;99.90
2012;DHT22;1009;51.436;6.972;2023-09-30T12:03:22;20.30;99.90
2012;DHT22;1009;51.436;6.972;2023-09-30T12:05:51;20.70;99.90
2012;DHT22;1009;51.436;6.972;2023-09-30T12:08:20;20.70;99.90
2012;DHT22;1009;51.436;6.972;2023-09-30T12:10:47;20.90;99.90
2012;DHT22;1009;51.436;6.972;2023-09-30T12:13:14;21.10;99.90
2012;DHT22;1009;51.436;6.972;2023-09-30T12:15:41;21.20;99.90
2012;DHT22;1009;51.436;6.972;2023-09-30T12:18:08;21.40;99.90
2012;DHT22;1009;51.436;6.972;2023-09-30T12:20:35;21.60;99.90
2012;DHT22;1009;51.436;6.972;2023-09-30T12:23:04;21.50;99.90
2012;DHT22;1009;51.436;6.972;2023-09-30T12:25:31;21.60;99.90
2012;DHT22;1009;51.436;6.972;2023-09-30T12:28:00;21.60;99.90
2012;DHT22;1009;51.436;6.972;2023-09-30T12:30:26;21.60;99.90
2012;DHT22;1009;51.436;6.972;2023-09-30T12:32:53;21.40;99.90
2012;DHT22;1009;51.436;6.972;2023-09-30T12:35:20;21.40;99.90
2012;DHT22;1009;51.436;6.972;2023-09-30T12:37:47;21.50;99.90
2012;DHT22;1009;51.436;6.972;2023-09-30T12:40:15;21.40;99.90
2012;DHT22;1009;51.436;6.972;2023-09-30T12:42:43;21.50;99.90
2012;DHT22;1009;51.436;6.972;2023-09-30T12:45:10;21.60;99.90
2012;DHT22;1009;51.436;6.972;2023-09-30T12:47:38;21.70;99.90
2012;DHT22;1009;51.436;6.972;2023-09-30T12:50:06;21.70;99.90
2012;DHT22;1009;51.436;6.972;2023-09-30T12:52:35;21.70;99.90
2012;DHT22;1009;51.436;6.972;2023-09-30T12:55:02;21.80;99.90
2012;DHT22;1009;51.436;6.972;2023-09-30T12:57:31;21.90;99.90
2012;DHT22;1009;51.436;6.972;2023-09-30T12:59:58;21.70;99.90
2012;DHT22;1009;51.436;6.972;2023-09-30T13:02:25;21.90;99.90
2012;DHT22;1009;51.436;6.972;2023-09-30T13:04:52;21.80;99.90
2012;DHT22;1009;51.436;6.972;2023-09-30T13:07:20;21.60;99.90
2012;DHT22;1009;51.436;6.972;2023-09-30T13:09:46;21.40;99.90
2012;DHT22;1009;51.436;6.972;2023-09-30T13:12:13;21.50;99.90
2012;DHT22;1009;51.436;6.972;2023-09-30T13:14:41;21.50;99.90
2012;DHT22;1009;51.436;6.972;2023-09-30T13:17:08;21.40;99.90
2012;DHT22;1009;51.436;6.972;2023-09-30T13:19:38;21.20;99.90
2012;DHT22;1009;51.436;6.972;2023-09-30T13:22:05;21.00;99.90
2012;DHT22;1009;51.436;6.972;2023-09-30T13:24:32;20.90;99.90
2012;DHT22;1009;51.436;6.972;2023-09-30T13:27:03;20.90;99.90
2012;DHT22;1009;51.436;6.972;2023-09-30T13:29:29;20.90;99.90
2012;DHT22;1009;51.436;6.972;2023-09-30T13:31:57;20.80;99.90
2012;DHT22;1009;51.436;6.972;2023-09-30T13:34:24;20.70;99.90
2012;DHT22;1009;51.436;6.972;2023-09-30T13:36:51;20.70;99.90
2012;DHT22;1009;51.436;6.972;2023-09-30T13:39:18;20.70;99.90
2012;DHT22;1009;51.436;6.972;2023-09-30T13:41:44;20.70;99.90
2012;DHT22;1009;51.436;6.972;2023-09-30T13:44:12;20.70;99.90
2012;DHT22;1009;51.436;6.972;2023-09-30T13:46:39;20.70;99.90
2012;DHT22;1009;51.436;6.972;2023-09-30T13:49:09;20.70;99.90
2012;DHT22;1009;51.436;6.972;2023-09-30T13:51:36;20.90;99.90
2012;DHT22;1009;51.436;6.972;2023-09-30T13:54:04;21.00;99.90
2012;DHT22;1009;51.436;6.972;2023-09-30T13:56:32;21.10;99.90
2012;DHT22;1009;51.436;6.972;2023-09-30T13:58:59;21.30;99.90
2012;DHT22;1009;51.436;6.972;2023-09-30T14:01:26;21.30;99.90
2012;DHT22;1009;51.436;6.972;2023-09-30T14:03:53;21.20;99.90
2012;DHT22;1009;51.436;6.972;2023-09-30T14:06:24;21.30;99.90
2012;DHT22;1009;51.436;6.972;2023-09-30T14:08:51;21.10;99.90
2012;DHT22;1009;51.436;6.972;2023-09-30T14:11:21;21.10;99.90
2012;DHT22;1009;51.436;6.972;2023-09-30T14:13:47;21.00;99.90
2012;DHT22;1009;51.436;6.972;2023-09-30T14:16:14;20.90;99.90
2012;DHT22;1009;51.436;6.972;2023-09-30T14:18:41;20.80;99.90
2012;DHT22;1009;51.436;6.972;2023-09-30T14:21:08;20.80;99.90
2012;DHT22;1009;51.436;6.972;2023-09-30T14:23:36;20.60;99.90
2012;DHT22;1009;51.436;6.972;2023-09-30T14:26:03;20.40;99.90
2012;DHT22;1009;51.436;6.972;2023-09-30T14:28:36;20.30;99.90
2012;DHT22;1009;51.436;6.972;2023-09-30T14:31:03;20.20;99.90
2012;DHT22;1009;51.436;6.972;2023-09-30T14:33:30;20.10;99.90
2012;DHT22;1009;51.436;6.972;2023-09-30T14:35:57;19.90;99.90
2012;DHT22;1009;51.436;6.972;2023-09-30T14:38:23;19.70;99.90
2012;DHT22;1009;51.436;6.972;2023-09-30T14:40:52;19.70;99.90
2012;DHT22;1009;51.436;6.972;2023-09-30T14:43:19;19.70;99.90
2012;DHT22;1009;51.436;6.972;2023-09-30T14:45:45;19.70;99.90
2012;DHT22;1009;51.436;6.972;2023-09-30T14:48:12;19.70;99.90
2012;DHT22;1009;51.436;6.972;2023-09-30T14:50:48;19.70;99.90
2012;DHT22;1009;51.436;6.972;2023-09-30T14:53:14;19.60;99.90
2012;DHT22;1009;51.436;6.972;2023-09-30T14:55:42;19.60;99.90
2012;DHT22;1009;51.436;6.972;2023-09-30T14:58:10;19.50;99.90
2012;DHT22;1009;51.436;6.972;2023-09-30T15:00:37;19.50;99.90
2012;DHT22;1009;51.436;6.972;2023-09-30T15:03:04;19.50;99.90
2012;DHT22;1009;51.436;6.972;2023-09-30T15:05:32;19.50;99.90
2012;DHT22;1009;51.436;6.972;2023-09-30T15:07:59;19.50;99.90
2012;DHT22;1009;51.436;6.972;2023-09-30T15:10:27;19.60;99.90
2012;DHT22;1009;51.436;6.972;2023-09-30T15:12:54;19.50;99.90
2012;DHT22;1009;51.436;6.972;2023-09-30T15:15:24;19.50;99.90
2012;DHT22;1009;51.436;6.972;2023-09-30T15:17:51;19.50;99.90
2012;DHT22;1009;51.436;6.972;2023-09-30T15:20:18;19.50;99.90
2012;DHT22;1009;51.436;6.972;2023-09-30T15:22:46;19.50;99.90
2012;DHT22;1009;51.436;6.972;2023-09-30T15:25:12;19.50;99.90
2012;DHT22;1009;51.436;6.972;2023-09-30T15:27:39;19.50;99.90
2012;DHT22;1009;51.436;6.972;2023-09-30T15:30:07;19.40;99.90
2012;DHT22;1009;51.436;6.972;2023-09-30T15:32:39;19.30;99.90
2012;DHT22;1009;51.436;6.972;2023-09-30T15:35:07;19.20;99.90
2012;DHT22;1009;51.436;6.972;2023-09-30T15:37:34;19.10;99.90
2012;DHT22;1009;51.436;6.972;2023-09-30T15:40:00;19.00;99.90
2012;DHT22;1009;51.436;6.972;2023-09-30T15:42:27;19.00;99.90
2012;DHT22;1009;51.436;6.972;2023-09-30T15:44:54;19.00;99.90
2012;DHT22;1009;51.436;6.972;2023-09-30T15:47:21;19.00;99.90
2012;DHT22;1009;51.436;6.972;2023-09-30T15:49:50;19.10;99.90
2012;DHT22;1009;51.436;6.972;2023-09-30T15:52:16;19.10;99.90
2012;DHT22;1009;51.436;6.972;2023-09-30T15:54:43;19.10;99.90
2012;DHT22;1009;51.436;6.972;2023-09-30T15:57:10;19.00;99.90
2012;DHT22;1009;51.436;6.972;2023-09-30T15:59:36;19.00;99.90
2012;DHT22;1009;51.436;6.972;2023-09-30T16:02:02;19.00;99.90
2012;DHT22;1009;51.436;6.972;2023-09-30T16:04:29;19.00;99.90
2012;DHT22;1009;51.436;6.972;2023-09-30T16:06:58;19.00;99.90
2012;DHT22;1009;51.436;6.972;2023-09-30T16:09:25;18.90;99.90